Fort Lee, Virginia
Current Conditions -  °F | °C
As of 3:55 PM on Thursday 27 Nov 2014 (Local Time) from KPTB Reporting Station
Overcast Overcast  
Wind Chill: 45°   Ceiling: 2200
Heat Index: 45°   Visibility: 10mi
Dew Point: 40°   Wind: 3mph
Humidity: 84%   Direction: 350°N
Pressure: 30.07"   Gusts: NA
Location:  37.24°N, 77.34°W
Report Text: KPTB 272055Z AUTO 35003KT 10SM BKN022 SCT055 OVC085 07/05 A3007 RMK AO2 T00720047
Loading
Personal Weather Stations






























Interactive Weather Map New forecast layout! Learn more

10-Day Weather Forecast

Advertisements
Track Severe Weather on mobile